createdAt,value
2023-02-11T00:00:18.155Z,44.13
2023-02-11T00:02:47.755Z,42.45
2023-02-11T00:05:16.074Z,42.78
2023-02-11T00:07:42.633Z,44.63
2023-02-11T00:10:09.775Z,42.85
2023-02-11T00:12:37.077Z,39.10
2023-02-11T00:15:04.233Z,43.80
2023-02-11T00:17:32.039Z,42.17
2023-02-11T00:19:58.716Z,40.75
2023-02-11T00:22:26.705Z,41.30
2023-02-11T00:24:53.478Z,44.33
2023-02-11T00:27:20.049Z,44.28
2023-02-11T00:29:46.624Z,43.33
2023-02-11T00:32:13.231Z,47.83
2023-02-11T00:34:39.815Z,42.95
2023-02-11T00:37:06.789Z,39.03
2023-02-11T00:39:34.861Z,42.47
2023-02-11T00:42:01.542Z,39.85
2023-02-11T00:44:28.284Z,43.08
2023-02-11T00:46:54.842Z,41.25
2023-02-11T00:49:21.569Z,40.63
2023-02-11T00:51:48.123Z,40.42
2023-02-11T00:54:14.757Z,43.20
2023-02-11T00:56:42.636Z,39.90
2023-02-11T00:59:09.230Z,41.50
2023-02-11T01:01:35.896Z,40.37
2023-02-11T01:04:02.644Z,39.78
2023-02-11T01:06:29.376Z,40.15
2023-02-11T01:08:55.893Z,38.75
2023-02-11T01:11:22.932Z,43.45
2023-02-11T01:13:51.172Z,41.27
2023-02-11T01:16:18.329Z,44.17
2023-02-11T01:18:44.981Z,41.70
2023-02-11T01:21:11.947Z,44.10
2023-02-11T01:23:38.670Z,45.10
2023-02-11T01:26:05.718Z,47.70
2023-02-11T01:28:33.414Z,45.30
2023-02-11T01:31:01.873Z,40.28
2023-02-11T01:33:29.003Z,43.63
2023-02-11T01:35:55.594Z,45.58
2023-02-11T01:38:24.581Z,42.17
2023-02-11T01:40:54.396Z,43.08
2023-02-11T01:43:21.928Z,41.17
2023-02-11T01:46:02.801Z,42.83
2023-02-11T01:48:32.538Z,46.30
2023-02-11T01:51:04.749Z,41.30
2023-02-11T01:53:33.880Z,40.88
2023-02-11T01:56:00.839Z,41.15
2023-02-11T01:58:30.873Z,40.50
2023-02-11T02:00:57.778Z,38.60
2023-02-11T02:03:26.316Z,45.57
2023-02-11T02:05:59.477Z,46.40
2023-02-11T02:08:35.037Z,44.63
2023-02-11T02:11:01.992Z,41.33
2023-02-11T02:13:30.960Z,42.10
2023-02-11T02:16:00.046Z,44.60
2023-02-11T02:18:39.452Z,46.15
2023-02-11T02:21:46.945Z,42.00
2023-02-11T02:24:38.207Z,40.38
2023-02-11T02:27:29.585Z,43.05
2023-02-11T02:30:30.372Z,40.37
2023-02-11T02:33:25.080Z,43.50
2023-02-11T02:36:04.191Z,38.40
2023-02-11T02:38:34.512Z,37.17
2023-02-11T02:41:06.075Z,43.28
2023-02-11T02:43:34.457Z,39.93
2023-02-11T02:46:14.416Z,40.67
2023-02-11T02:48:42.876Z,41.28
2023-02-11T02:51:23.438Z,41.90
2023-02-11T02:54:04.505Z,41.13
2023-02-11T02:56:36.481Z,41.87
2023-02-11T02:59:33.672Z,39.15
2023-02-11T03:02:10.622Z,39.45
2023-02-11T03:04:50.118Z,39.33
2023-02-11T03:07:26.162Z,41.13
2023-02-11T03:09:59.195Z,41.37
2023-02-11T03:12:28.944Z,43.53
2023-02-11T03:14:55.520Z,41.92
2023-02-11T03:17:26.080Z,38.03
2023-02-11T03:19:54.697Z,40.53
2023-02-11T03:22:26.604Z,40.53
2023-02-11T03:24:54.810Z,41.28
2023-02-11T03:27:28.503Z,40.42
2023-02-11T03:30:01.140Z,41.85
2023-02-11T03:32:31.068Z,40.33
2023-02-11T03:35:04.104Z,37.57
2023-02-11T03:37:35.445Z,38.22
2023-02-11T03:40:07.226Z,38.70
2023-02-11T03:42:39.228Z,41.88
2023-02-11T03:45:09.502Z,40.88
2023-02-11T03:47:38.638Z,39.60
2023-02-11T03:50:08.842Z,40.65
2023-02-11T03:52:37.701Z,41.10
2023-02-11T03:55:08.756Z,39.30
2023-02-11T03:57:35.498Z,40.28
2023-02-11T04:00:02.069Z,37.03
2023-02-11T04:02:31.793Z,39.45
2023-02-11T04:04:58.485Z,39.58
2023-02-11T04:07:26.455Z,42.97
2023-02-11T04:09:53.613Z,37.85
2023-02-11T04:12:20.745Z,38.03
2023-02-11T04:14:47.337Z,39.40
2023-02-11T04:17:13.917Z,37.38
2023-02-11T04:19:40.758Z,41.08
2023-02-11T04:22:08.161Z,41.92
2023-02-11T04:24:36.372Z,40.27
2023-02-11T04:27:03.204Z,39.00
2023-02-11T04:29:29.958Z,37.10
2023-02-11T04:31:56.635Z,38.42
2023-02-11T04:34:23.797Z,35.30
2023-02-11T04:36:50.350Z,43.43
2023-02-11T04:39:17.089Z,39.63
2023-02-11T04:41:45.574Z,34.95
2023-02-11T04:44:12.357Z,36.70
2023-02-11T04:46:39.199Z,40.50
2023-02-11T04:49:05.810Z,42.27
2023-02-11T04:51:32.629Z,41.22
2023-02-11T04:53:59.164Z,36.95
2023-02-11T04:56:25.705Z,43.97
2023-02-11T04:58:53.711Z,41.38
2023-02-11T05:01:20.445Z,41.43
2023-02-11T05:03:47.131Z,40.83
2023-02-11T05:06:14.216Z,38.75
2023-02-11T05:08:40.992Z,40.33
2023-02-11T05:11:08.534Z,37.58
2023-02-11T05:13:35.133Z,41.17
2023-02-11T05:16:03.211Z,36.60
2023-02-11T05:18:29.778Z,43.05
2023-02-11T05:20:56.292Z,45.55
2023-02-11T05:23:23.002Z,47.13
2023-02-11T05:25:49.882Z,42.70
2023-02-11T05:28:16.746Z,35.90
2023-02-11T05:30:43.494Z,49.20
2023-02-11T05:33:11.606Z,42.38
2023-02-11T05:35:38.203Z,43.67
2023-02-11T05:38:04.973Z,39.77
2023-02-11T05:40:31.582Z,44.90
2023-02-11T05:42:58.164Z,45.58
2023-02-11T05:45:24.901Z,47.13
2023-02-11T05:47:51.482Z,46.58
2023-02-11T05:50:19.818Z,44.80
2023-02-11T05:52:46.400Z,46.97
2023-02-11T05:55:13.165Z,41.90
2023-02-11T05:57:39.763Z,43.15
2023-02-11T06:00:07.178Z,41.25
2023-02-11T06:02:33.849Z,42.97
2023-02-11T06:05:00.628Z,43.60
2023-02-11T06:07:28.686Z,44.08
2023-02-11T06:09:55.255Z,42.15
2023-02-11T06:12:21.851Z,39.83
2023-02-11T06:14:48.441Z,42.57
2023-02-11T06:17:15.785Z,44.67
2023-02-11T06:19:42.579Z,47.58
2023-02-11T06:22:09.116Z,46.03
2023-02-11T06:24:59.859Z,42.38
2023-02-11T06:27:24.236Z,47.60
2023-02-11T06:29:50.795Z,43.58
2023-02-11T06:32:39.413Z,41.85
2023-02-11T06:35:04.284Z,42.58
2023-02-11T06:37:30.930Z,39.22
2023-02-11T06:39:58.859Z,43.87
2023-02-11T06:42:25.436Z,39.17
2023-02-11T06:44:52.231Z,43.15
2023-02-11T06:47:18.982Z,42.40
2023-02-11T06:49:45.791Z,39.15
2023-02-11T06:52:12.427Z,42.73
2023-02-11T06:54:39.181Z,43.05
2023-02-11T06:57:07.085Z,38.35
2023-02-11T06:59:33.701Z,46.28
2023-02-11T07:02:00.368Z,45.45
2023-02-11T07:04:27.239Z,46.50
2023-02-11T07:06:53.786Z,46.40
2023-02-11T07:09:20.520Z,44.50
2023-02-11T07:11:47.089Z,43.45
2023-02-11T07:14:15.071Z,39.78
2023-02-11T07:16:41.821Z,44.57
2023-02-11T07:19:08.396Z,40.28
2023-02-11T07:21:35.020Z,40.45
2023-02-11T07:24:01.650Z,38.53
2023-02-11T07:26:28.304Z,42.40
2023-02-11T07:28:55.097Z,41.00
2023-02-11T07:31:24.743Z,41.55
2023-02-11T07:33:52.886Z,44.22
2023-02-11T07:36:19.563Z,42.53
2023-02-11T07:38:46.415Z,42.30
2023-02-11T07:41:15.158Z,40.07
2023-02-11T07:43:42.541Z,45.45
2023-02-11T07:46:11.582Z,42.17
2023-02-11T07:48:40.167Z,42.30
2023-02-11T07:51:08.805Z,43.10
2023-02-11T07:53:35.636Z,40.77
2023-02-11T07:56:03.273Z,37.53
2023-02-11T07:58:29.931Z,42.72
2023-02-11T08:01:01.088Z,42.38
2023-02-11T08:03:27.701Z,43.58
2023-02-11T08:05:55.730Z,39.70
2023-02-11T08:08:22.245Z,44.90
2023-02-11T08:10:49.162Z,40.95
2023-02-11T08:13:15.895Z,47.78
2023-02-11T08:15:42.482Z,41.85
2023-02-11T08:18:09.021Z,41.17
2023-02-11T08:20:35.746Z,43.75
2023-02-11T08:23:05.743Z,43.35
2023-02-11T08:25:32.588Z,45.38
2023-02-11T08:27:59.151Z,42.35
2023-02-11T08:30:27.386Z,41.77
2023-02-11T08:32:54.120Z,44.45
2023-02-11T08:35:20.866Z,45.42
2023-02-11T08:37:47.410Z,39.35
2023-02-11T08:40:15.560Z,39.63
2023-02-11T08:42:42.117Z,43.50
2023-02-11T08:45:09.244Z,44.58
2023-02-11T08:47:36.077Z,44.50
2023-02-11T08:50:03.440Z,44.38
2023-02-11T08:52:30.140Z,44.92
2023-02-11T08:54:56.903Z,43.73
2023-02-11T08:57:24.861Z,43.22
2023-02-11T08:59:51.374Z,41.97
2023-02-11T09:02:18.126Z,42.17
2023-02-11T09:04:44.666Z,44.33
2023-02-11T09:07:11.384Z,40.27
2023-02-11T09:09:37.986Z,42.58
2023-02-11T09:12:05.358Z,42.88
2023-02-11T09:14:33.358Z,43.28
2023-02-11T09:17:00.149Z,41.28
2023-02-11T09:19:26.750Z,41.87
2023-02-11T09:21:53.321Z,44.33
2023-02-11T09:24:19.849Z,45.33
2023-02-11T09:26:46.758Z,43.47
2023-02-11T09:29:13.291Z,41.03
2023-02-11T09:31:41.337Z,42.00
2023-02-11T09:34:08.396Z,45.50
2023-02-11T09:36:37.869Z,44.97
2023-02-11T09:39:06.834Z,42.05
2023-02-11T09:41:47.607Z,47.80
2023-02-11T09:44:20.093Z,45.53
2023-02-11T09:46:54.216Z,43.35
2023-02-11T09:49:26.006Z,49.20
2023-02-11T09:51:58.637Z,48.00
2023-02-11T09:54:31.498Z,49.97
2023-02-11T09:56:58.081Z,42.87
2023-02-11T09:59:24.656Z,43.33
2023-02-11T10:01:57.519Z,45.30
2023-02-11T10:04:42.538Z,49.20
2023-02-11T10:07:16.670Z,46.58
2023-02-11T10:09:56.945Z,52.63
2023-02-11T10:12:38.726Z,54.97
2023-02-11T10:15:33.352Z,46.38
2023-02-11T10:18:21.155Z,46.10
2023-02-11T10:20:54.291Z,43.05
2023-02-11T10:23:25.152Z,49.53
2023-02-11T10:25:53.285Z,41.88
2023-02-11T10:28:24.487Z,43.83
2023-02-11T10:30:58.648Z,44.40
2023-02-11T10:33:30.886Z,45.88
2023-02-11T10:35:57.484Z,51.07
2023-02-11T10:38:24.500Z,43.58
2023-02-11T10:40:52.156Z,43.58
2023-02-11T10:43:23.649Z,52.10
2023-02-11T10:45:52.695Z,45.45
2023-02-11T10:48:42.897Z,45.10
2023-02-11T10:51:18.446Z,43.35
2023-02-11T10:53:45.694Z,41.90
2023-02-11T10:56:19.869Z,45.15
2023-02-11T10:58:55.947Z,43.83
2023-02-11T11:01:24.992Z,39.00
2023-02-11T11:03:53.203Z,40.00
2023-02-11T11:06:30.398Z,41.92
2023-02-11T11:08:57.020Z,38.20
2023-02-11T11:11:25.042Z,35.55
2023-02-11T11:13:56.650Z,42.00
2023-02-11T11:16:25.780Z,36.55
2023-02-11T11:19:21.336Z,39.80
2023-02-11T11:21:50.336Z,38.65
2023-02-11T11:24:19.819Z,40.13
2023-02-11T11:26:48.843Z,39.10
2023-02-11T11:29:19.050Z,41.08
2023-02-11T11:31:49.160Z,38.60
2023-02-11T11:34:24.935Z,38.47
2023-02-11T11:36:51.779Z,38.22
2023-02-11T11:39:22.808Z,33.60
2023-02-11T11:41:51.604Z,37.58
2023-02-11T11:44:28.046Z,38.33
2023-02-11T11:47:16.188Z,38.42
2023-02-11T11:49:51.474Z,37.15
2023-02-11T11:52:33.603Z,38.77
2023-02-11T11:55:09.570Z,37.58
2023-02-11T11:57:38.809Z,37.78
2023-02-11T12:00:13.636Z,43.03
2023-02-11T12:03:04.965Z,39.63
2023-02-11T12:05:40.855Z,35.93
2023-02-11T12:08:16.835Z,35.15
2023-02-11T12:10:57.332Z,39.28
2023-02-11T12:13:43.659Z,37.70
2023-02-11T12:16:19.758Z,42.35
2023-02-11T12:19:18.133Z,42.37
2023-02-11T12:21:58.474Z,39.40
2023-02-11T12:24:38.162Z,40.22
2023-02-11T12:27:11.420Z,34.70
2023-02-11T12:29:49.122Z,37.63
2023-02-11T12:32:24.020Z,39.07
2023-02-11T12:35:17.189Z,36.88
2023-02-11T12:38:08.848Z,39.20
2023-02-11T12:40:43.737Z,37.50
2023-02-11T12:43:20.356Z,36.90
2023-02-11T12:46:02.049Z,39.70
2023-02-11T12:48:43.857Z,38.95
2023-02-11T12:51:23.854Z,38.83
2023-02-11T12:54:13.002Z,36.97
2023-02-11T12:56:46.615Z,33.97
2023-02-11T12:59:20.594Z,37.90
2023-02-11T13:01:50.361Z,36.78
2023-02-11T13:04:23.573Z,34.30
2023-02-11T13:06:55.686Z,34.88
2023-02-11T13:09:27.885Z,36.78
2023-02-11T13:11:58.408Z,35.70
2023-02-11T13:14:29.276Z,38.92
2023-02-11T13:16:56.247Z,35.50
2023-02-11T13:19:31.213Z,33.22
2023-02-11T13:22:11.169Z,37.90
2023-02-11T13:24:43.797Z,36.03
2023-02-11T13:27:26.150Z,37.75
2023-02-11T13:30:20.721Z,40.45
2023-02-11T13:33:17.894Z,44.53
2023-02-11T13:35:48.456Z,41.83
2023-02-11T13:38:20.925Z,36.80
2023-02-11T13:41:01.548Z,34.60
2023-02-11T13:43:30.343Z,37.22
2023-02-11T13:45:59.637Z,35.75
2023-02-11T13:48:28.661Z,34.67
2023-02-11T13:50:59.378Z,31.53
2023-02-11T13:53:27.470Z,35.30
2023-02-11T13:56:06.666Z,34.72
2023-02-11T13:58:35.433Z,39.08
2023-02-11T14:01:02.203Z,39.30
2023-02-11T14:03:31.900Z,33.23
2023-02-11T14:06:22.626Z,38.10
2023-02-11T14:09:01.205Z,35.88
2023-02-11T14:11:47.987Z,35.15
2023-02-11T14:14:17.956Z,34.53
2023-02-11T14:17:20.993Z,33.43
2023-02-11T14:19:48.352Z,36.25
2023-02-11T14:22:18.108Z,35.08
2023-02-11T14:24:51.757Z,33.92
2023-02-11T14:27:25.692Z,32.95
2023-02-11T14:30:10.639Z,31.43
2023-02-11T14:32:48.635Z,36.00
2023-02-11T14:35:28.236Z,31.98
2023-02-11T14:38:01.696Z,32.13
2023-02-11T14:40:32.245Z,32.15
2023-02-11T14:43:16.513Z,34.83
2023-02-11T14:45:45.334Z,37.85
2023-02-11T14:48:16.115Z,33.15
2023-02-11T14:50:46.074Z,34.78
2023-02-11T14:53:16.333Z,35.40
2023-02-11T14:55:45.906Z,32.67
2023-02-11T14:58:19.123Z,30.48
2023-02-11T15:00:55.057Z,38.53
2023-02-11T15:03:27.183Z,36.05
2023-02-11T15:05:56.098Z,33.70
2023-02-11T15:08:23.094Z,30.83
2023-02-11T15:10:50.330Z,33.70
2023-02-11T15:13:21.446Z,34.25
2023-02-11T15:15:52.233Z,30.65
2023-02-11T15:18:22.014Z,33.17
2023-02-11T15:20:50.382Z,32.03
2023-02-11T15:23:22.400Z,36.15
2023-02-11T15:25:49.161Z,36.22
2023-02-11T15:28:23.588Z,31.77
2023-02-11T15:30:57.739Z,36.40
2023-02-11T15:33:24.418Z,35.83
2023-02-11T15:35:51.078Z,36.20
2023-02-11T15:38:17.921Z,35.67
2023-02-11T15:40:53.619Z,39.10
2023-02-11T15:43:21.773Z,35.38
2023-02-11T15:45:58.805Z,36.97
2023-02-11T15:48:35.779Z,34.65
2023-02-11T15:51:08.256Z,34.65
2023-02-11T15:53:38.440Z,35.38
2023-02-11T15:56:11.702Z,49.78
2023-02-11T15:58:41.865Z,37.67
2023-02-11T16:01:10.194Z,38.65
2023-02-11T16:03:36.901Z,40.47
2023-02-11T16:06:21.520Z,39.55
2023-02-11T16:09:00.513Z,40.30
2023-02-11T16:11:29.463Z,30.10
2023-02-11T16:13:58.470Z,29.35
2023-02-11T16:16:27.840Z,31.88
2023-02-11T16:19:04.747Z,37.03
2023-02-11T16:21:34.923Z,36.05
2023-02-11T16:24:01.919Z,38.33
2023-02-11T16:26:32.558Z,34.63
2023-02-11T16:29:06.483Z,34.33
2023-02-11T16:31:34.471Z,31.92
2023-02-11T16:34:01.121Z,31.92
2023-02-11T16:36:27.805Z,32.33
2023-02-11T16:38:54.330Z,32.90
2023-02-11T16:41:20.856Z,31.77
2023-02-11T16:43:47.376Z,29.15
2023-02-11T16:46:16.064Z,32.88
2023-02-11T16:48:43.298Z,32.30
2023-02-11T16:51:11.744Z,34.72
2023-02-11T16:53:38.397Z,34.90
2023-02-11T16:56:05.680Z,38.58
2023-02-11T16:58:32.338Z,36.47
2023-02-11T17:00:58.926Z,49.90
2023-02-11T17:03:29.834Z,62.60
2023-02-11T17:05:56.775Z,34.45
2023-02-11T17:08:23.374Z,30.55
2023-02-11T17:10:50.332Z,35.75
2023-02-11T17:13:17.192Z,33.73
2023-02-11T17:15:43.707Z,33.17
2023-02-11T17:18:13.062Z,36.22
2023-02-11T17:20:41.688Z,36.67
2023-02-11T17:23:08.662Z,37.83
2023-02-11T17:25:35.659Z,32.03
2023-02-11T17:28:02.243Z,36.80
2023-02-11T17:30:28.888Z,36.72
2023-02-11T17:32:55.473Z,33.05
2023-02-11T17:35:21.963Z,34.28
2023-02-11T17:37:49.901Z,35.10
2023-02-11T17:40:16.659Z,34.58
2023-02-11T17:42:43.371Z,36.00
2023-02-11T17:45:10.433Z,34.17
2023-02-11T17:47:37.034Z,35.20
2023-02-11T17:50:04.483Z,34.37
2023-02-11T17:52:31.001Z,34.40
2023-02-11T17:54:58.863Z,34.80
2023-02-11T17:57:25.447Z,32.55
2023-02-11T17:59:52.043Z,34.38
2023-02-11T18:02:18.644Z,34.83
2023-02-11T18:04:45.492Z,35.65
2023-02-11T18:07:12.416Z,33.80
2023-02-11T18:09:40.118Z,33.50
2023-02-11T18:12:08.969Z,35.60
2023-02-11T18:14:35.683Z,36.50
2023-02-11T18:17:02.253Z,38.20
2023-02-11T18:19:28.870Z,31.15
2023-02-11T18:21:55.500Z,36.08
2023-02-11T18:24:22.087Z,37.83
2023-02-11T18:26:48.650Z,35.47
2023-02-11T18:29:16.597Z,37.55
2023-02-11T18:31:43.258Z,39.95
2023-02-11T18:34:11.047Z,35.95
2023-02-11T18:36:37.738Z,35.78
2023-02-11T18:39:04.581Z,33.10
2023-02-11T18:41:31.169Z,36.42
2023-02-11T18:43:58.078Z,35.80
2023-02-11T18:46:27.162Z,38.25
2023-02-11T18:48:56.104Z,37.17
2023-02-11T18:51:23.302Z,36.13
2023-02-11T18:53:50.118Z,47.85
2023-02-11T18:56:18.424Z,38.25
2023-02-11T18:58:45.090Z,36.75
2023-02-11T19:01:13.778Z,35.55
2023-02-11T19:03:41.794Z,34.43
2023-02-11T19:06:14.430Z,39.35
2023-02-11T19:08:40.994Z,34.42
2023-02-11T19:11:07.785Z,35.30
2023-02-11T19:13:34.345Z,36.88
2023-02-11T19:16:05.336Z,33.67
2023-02-11T19:18:32.129Z,35.70
2023-02-11T19:21:00.154Z,32.17
2023-02-11T19:23:26.709Z,33.65
2023-02-11T19:25:53.431Z,30.02
2023-02-11T19:28:20.200Z,34.70
2023-02-11T19:30:46.843Z,32.15
2023-02-11T19:33:13.436Z,32.88
2023-02-11T19:35:40.357Z,33.00
2023-02-11T19:38:08.305Z,34.28
2023-02-11T19:40:34.866Z,31.63
2023-02-11T19:43:01.396Z,32.88
2023-02-11T19:45:28.038Z,34.15
2023-02-11T19:47:55.884Z,34.83
2023-02-11T19:50:22.528Z,34.75
2023-02-11T19:52:49.201Z,33.07
2023-02-11T19:55:17.466Z,32.95
2023-02-11T19:57:44.212Z,39.75
2023-02-11T20:00:11.806Z,38.90
2023-02-11T20:02:38.531Z,39.58
2023-02-11T20:05:05.798Z,40.47
2023-02-11T20:07:32.446Z,43.80
2023-02-11T20:09:58.980Z,37.83
2023-02-11T20:12:27.076Z,34.00
2023-02-11T20:14:53.596Z,36.83
2023-02-11T20:17:20.343Z,34.77
2023-02-11T20:19:46.929Z,38.17
2023-02-11T20:22:13.533Z,36.67
2023-02-11T20:24:40.269Z,36.03
2023-02-11T20:27:06.843Z,36.22
2023-02-11T20:29:34.794Z,37.17
2023-02-11T20:32:01.493Z,35.00
2023-02-11T20:34:28.122Z,37.58
2023-02-11T20:36:55.009Z,34.10
2023-02-11T20:39:23.190Z,38.20
2023-02-11T20:41:50.435Z,35.47
2023-02-11T20:44:17.038Z,39.38
2023-02-11T20:46:45.635Z,37.40
2023-02-11T20:49:13.448Z,36.92
2023-02-11T20:51:40.035Z,44.85
2023-02-11T20:54:07.264Z,36.73
2023-02-11T20:56:35.825Z,45.35
2023-02-11T20:59:03.792Z,36.15
2023-02-11T21:01:32.323Z,38.30
2023-02-11T21:04:03.553Z,41.97
2023-02-11T21:06:32.427Z,37.43
2023-02-11T21:08:59.037Z,38.10
2023-02-11T21:11:25.642Z,38.50
2023-02-11T21:13:52.246Z,42.08
2023-02-11T21:16:22.255Z,39.65
2023-02-11T21:18:50.028Z,44.67
2023-02-11T21:21:19.188Z,42.22
2023-02-11T21:23:45.897Z,40.60
2023-02-11T21:26:12.785Z,38.28
2023-02-11T21:28:41.040Z,41.20
2023-02-11T21:31:09.370Z,47.67
2023-02-11T21:33:36.129Z,41.53
2023-02-11T21:36:06.836Z,50.85
2023-02-11T21:38:34.912Z,50.58
2023-02-11T21:41:05.019Z,42.05
2023-02-11T21:43:31.582Z,44.27
2023-02-11T21:45:58.228Z,43.55
2023-02-11T21:48:24.913Z,41.13
2023-02-11T21:50:51.662Z,47.30
2023-02-11T21:53:18.405Z,46.38
2023-02-11T21:55:46.350Z,47.47
2023-02-11T21:58:13.490Z,44.53
2023-02-11T22:00:40.319Z,45.55
2023-02-11T22:03:07.059Z,45.17
2023-02-11T22:05:33.697Z,48.28
2023-02-11T22:08:00.296Z,43.70
2023-02-11T22:10:26.812Z,45.70
2023-02-11T22:12:54.709Z,46.53
2023-02-11T22:15:21.242Z,46.45
2023-02-11T22:17:47.934Z,48.05
2023-02-11T22:20:14.540Z,46.67
2023-02-11T22:22:41.127Z,45.53
2023-02-11T22:25:08.245Z,41.90
2023-02-11T22:27:34.893Z,48.13
2023-02-11T22:30:03.006Z,43.13
2023-02-11T22:32:29.719Z,42.30
2023-02-11T22:34:56.270Z,44.33
2023-02-11T22:37:23.132Z,45.60
2023-02-11T22:39:49.950Z,42.85
2023-02-11T22:42:16.782Z,48.78
2023-02-11T22:44:43.326Z,43.40
2023-02-11T22:47:11.282Z,47.33
2023-02-11T22:49:38.109Z,49.50
2023-02-11T22:52:04.901Z,48.78
2023-02-11T22:54:31.455Z,49.63
2023-02-11T22:56:58.024Z,46.27
2023-02-11T22:59:24.590Z,54.72
2023-02-11T23:01:51.273Z,51.70
2023-02-11T23:04:20.075Z,48.58
2023-02-11T23:06:46.752Z,50.22
2023-02-11T23:09:13.576Z,46.00
2023-02-11T23:11:40.233Z,54.40
2023-02-11T23:14:07.549Z,48.05
2023-02-11T23:16:34.879Z,47.75
2023-02-11T23:19:03.906Z,45.92
2023-02-11T23:21:34.235Z,46.97
2023-02-11T23:24:02.924Z,49.22
2023-02-11T23:26:30.396Z,50.05
2023-02-11T23:28:58.499Z,45.58
2023-02-11T23:31:27.093Z,47.95
2023-02-11T23:33:54.167Z,50.27
2023-02-11T23:36:21.496Z,47.05
2023-02-11T23:38:49.561Z,50.78
2023-02-11T23:41:16.826Z,60.38
2023-02-11T23:43:43.530Z,48.53
2023-02-11T23:46:10.437Z,50.83
2023-02-11T23:48:37.198Z,47.05
2023-02-11T23:51:04.168Z,51.83
2023-02-11T23:53:30.909Z,46.58
2023-02-11T23:55:58.814Z,50.15
2023-02-11T23:58:25.428Z,49.23
